sensor_id;sensor_type;location;lat;lon;timestamp;P1;durP1;ratioP1;P2;durP2;ratioP2
76351;SDS011;65179;47.786;19.138;2023-02-04T00:00:02;9.13;;;1.20;;
76351;SDS011;65179;47.786;19.138;2023-02-04T00:02:30;8.40;;;1.60;;
76351;SDS011;65179;47.786;19.138;2023-02-04T00:05:02;5.45;;;1.40;;
76351;SDS011;65179;47.786;19.138;2023-02-04T00:07:36;12.82;;;2.28;;
76351;SDS011;65179;47.786;19.138;2023-02-04T00:10:03;5.18;;;1.45;;
76351;SDS011;65179;47.786;19.138;2023-02-04T00:12:30;8.97;;;1.90;;
76351;SDS011;65179;47.786;19.138;2023-02-04T00:14:56;12.37;;;1.60;;
76351;SDS011;65179;47.786;19.138;2023-02-04T00:17:22;9.30;;;1.87;;
76351;SDS011;65179;47.786;19.138;2023-02-04T00:19:47;7.97;;;1.40;;
76351;SDS011;65179;47.786;19.138;2023-02-04T00:22:16;8.50;;;1.58;;
76351;SDS011;65179;47.786;19.138;2023-02-04T00:24:42;8.60;;;1.73;;
76351;SDS011;65179;47.786;19.138;2023-02-04T00:27:12;11.25;;;2.05;;
76351;SDS011;65179;47.786;19.138;2023-02-04T00:29:38;11.75;;;1.95;;
76351;SDS011;65179;47.786;19.138;2023-02-04T00:32:04;6.40;;;2.00;;
76351;SDS011;65179;47.786;19.138;2023-02-04T00:34:32;5.45;;;1.62;;
76351;SDS011;65179;47.786;19.138;2023-02-04T00:36:57;11.20;;;2.17;;
76351;SDS011;65179;47.786;19.138;2023-02-04T00:39:23;12.03;;;1.93;;
76351;SDS011;65179;47.786;19.138;2023-02-04T00:41:48;10.00;;;1.95;;
76351;SDS011;65179;47.786;19.138;2023-02-04T00:44:14;7.97;;;1.57;;
76351;SDS011;65179;47.786;19.138;2023-02-04T00:46:42;6.60;;;1.70;;
76351;SDS011;65179;47.786;19.138;2023-02-04T00:49:12;11.30;;;1.73;;
76351;SDS011;65179;47.786;19.138;2023-02-04T00:51:38;6.03;;;1.27;;
76351;SDS011;65179;47.786;19.138;2023-02-04T00:54:10;6.15;;;1.52;;
76351;SDS011;65179;47.786;19.138;2023-02-04T00:56:42;8.18;;;1.50;;
76351;SDS011;65179;47.786;19.138;2023-02-04T00:59:08;8.63;;;1.77;;
76351;SDS011;65179;47.786;19.138;2023-02-04T01:01:39;6.35;;;1.42;;
76351;SDS011;65179;47.786;19.138;2023-02-04T01:04:09;12.60;;;1.87;;
76351;SDS011;65179;47.786;19.138;2023-02-04T01:06:35;15.98;;;2.30;;
76351;SDS011;65179;47.786;19.138;2023-02-04T01:09:01;7.28;;;1.60;;
76351;SDS011;65179;47.786;19.138;2023-02-04T01:11:28;11.95;;;1.77;;
76351;SDS011;65179;47.786;19.138;2023-02-04T01:13:54;8.27;;;1.60;;
76351;SDS011;65179;47.786;19.138;2023-02-04T01:16:20;8.02;;;2.10;;
76351;SDS011;65179;47.786;19.138;2023-02-04T01:18:50;9.33;;;1.93;;
76351;SDS011;65179;47.786;19.138;2023-02-04T01:21:21;9.27;;;1.70;;
76351;SDS011;65179;47.786;19.138;2023-02-04T01:23:51;7.03;;;1.58;;
76351;SDS011;65179;47.786;19.138;2023-02-04T01:26:20;6.95;;;1.70;;
76351;SDS011;65179;47.786;19.138;2023-02-04T01:28:56;9.13;;;1.83;;
76351;SDS011;65179;47.786;19.138;2023-02-04T01:31:21;7.60;;;1.50;;
76351;SDS011;65179;47.786;19.138;2023-02-04T01:33:47;8.20;;;1.70;;
76351;SDS011;65179;47.786;19.138;2023-02-04T01:36:12;9.57;;;1.40;;
76351;SDS011;65179;47.786;19.138;2023-02-04T01:38:38;7.28;;;2.55;;
76351;SDS011;65179;47.786;19.138;2023-02-04T01:41:04;12.13;;;1.70;;
76351;SDS011;65179;47.786;19.138;2023-02-04T01:43:30;8.50;;;2.15;;
76351;SDS011;65179;47.786;19.138;2023-02-04T01:46:00;11.30;;;1.63;;
76351;SDS011;65179;47.786;19.138;2023-02-04T01:48:26;5.43;;;1.70;;
76351;SDS011;65179;47.786;19.138;2023-02-04T01:50:59;8.57;;;1.30;;
76351;SDS011;65179;47.786;19.138;2023-02-04T01:53:28;8.07;;;1.80;;
76351;SDS011;65179;47.786;19.138;2023-02-04T01:55:54;7.30;;;1.63;;
76351;SDS011;65179;47.786;19.138;2023-02-04T01:58:19;5.45;;;1.55;;
76351;SDS011;65179;47.786;19.138;2023-02-04T02:00:49;8.00;;;1.75;;
76351;SDS011;65179;47.786;19.138;2023-02-04T02:03:19;8.43;;;1.70;;
76351;SDS011;65179;47.786;19.138;2023-02-04T02:05:49;9.30;;;1.87;;
76351;SDS011;65179;47.786;19.138;2023-02-04T02:08:17;8.73;;;2.35;;
76351;SDS011;65179;47.786;19.138;2023-02-04T02:10:44;7.70;;;1.70;;
76351;SDS011;65179;47.786;19.138;2023-02-04T02:13:17;9.77;;;2.33;;
76351;SDS011;65179;47.786;19.138;2023-02-04T02:15:43;6.87;;;1.45;;
76351;SDS011;65179;47.786;19.138;2023-02-04T02:18:09;11.48;;;1.70;;
76351;SDS011;65179;47.786;19.138;2023-02-04T02:20:35;6.03;;;1.80;;
76351;SDS011;65179;47.786;19.138;2023-02-04T02:26:15;10.27;;;1.95;;
76351;SDS011;65179;47.786;19.138;2023-02-04T02:28:42;7.28;;;1.40;;
76351;SDS011;65179;47.786;19.138;2023-02-04T02:31:08;8.45;;;2.12;;
76351;SDS011;65179;47.786;19.138;2023-02-04T02:33:34;14.70;;;2.00;;
76351;SDS011;65179;47.786;19.138;2023-02-04T02:36:00;7.97;;;2.10;;
76351;SDS011;65179;47.786;19.138;2023-02-04T02:38:26;4.03;;;1.33;;
76351;SDS011;65179;47.786;19.138;2023-02-04T02:40:53;25.52;;;2.47;;
76351;SDS011;65179;47.786;19.138;2023-02-04T02:43:20;6.95;;;1.45;;
76351;SDS011;65179;47.786;19.138;2023-02-04T02:45:48;6.70;;;2.10;;
76351;SDS011;65179;47.786;19.138;2023-02-04T02:48:18;9.95;;;1.48;;
76351;SDS011;65179;47.786;19.138;2023-02-04T02:50:43;5.60;;;1.60;;
76351;SDS011;65179;47.786;19.138;2023-02-04T02:53:17;7.85;;;1.67;;
76351;SDS011;65179;47.786;19.138;2023-02-04T02:55:48;6.50;;;1.60;;
76351;SDS011;65179;47.786;19.138;2023-02-04T02:58:26;6.75;;;1.83;;
76351;SDS011;65179;47.786;19.138;2023-02-04T03:00:56;5.22;;;1.27;;
76351;SDS011;65179;47.786;19.138;2023-02-04T03:03:31;9.18;;;2.33;;
76351;SDS011;65179;47.786;19.138;2023-02-04T03:06:01;6.12;;;1.70;;
76351;SDS011;65179;47.786;19.138;2023-02-04T03:08:34;6.73;;;1.70;;
76351;SDS011;65179;47.786;19.138;2023-02-04T03:11:08;7.10;;;1.45;;
76351;SDS011;65179;47.786;19.138;2023-02-04T03:13:34;5.62;;;1.45;;
76351;SDS011;65179;47.786;19.138;2023-02-04T03:16:01;5.30;;;1.55;;
76351;SDS011;65179;47.786;19.138;2023-02-04T03:18:32;4.50;;;1.42;;
76351;SDS011;65179;47.786;19.138;2023-02-04T03:21:00;6.63;;;1.20;;
76351;SDS011;65179;47.786;19.138;2023-02-04T03:23:31;5.12;;;1.23;;
76351;SDS011;65179;47.786;19.138;2023-02-04T03:26:02;10.38;;;1.70;;
76351;SDS011;65179;47.786;19.138;2023-02-04T03:28:29;10.80;;;1.50;;
76351;SDS011;65179;47.786;19.138;2023-02-04T03:30:55;7.07;;;1.55;;
76351;SDS011;65179;47.786;19.138;2023-02-04T03:33:22;6.10;;;1.00;;
76351;SDS011;65179;47.786;19.138;2023-02-04T03:35:51;6.60;;;1.30;;
76351;SDS011;65179;47.786;19.138;2023-02-04T03:38:17;8.77;;;1.30;;
76351;SDS011;65179;47.786;19.138;2023-02-04T03:40:43;6.28;;;1.35;;
76351;SDS011;65179;47.786;19.138;2023-02-04T03:43:13;5.45;;;1.12;;
76351;SDS011;65179;47.786;19.138;2023-02-04T03:45:43;5.97;;;1.45;;
76351;SDS011;65179;47.786;19.138;2023-02-04T03:48:09;6.60;;;1.10;;
76351;SDS011;65179;47.786;19.138;2023-02-04T03:50:38;3.45;;;0.90;;
76351;SDS011;65179;47.786;19.138;2023-02-04T03:53:03;9.38;;;1.50;;
76351;SDS011;65179;47.786;19.138;2023-02-04T03:55:33;8.82;;;1.45;;
76351;SDS011;65179;47.786;19.138;2023-02-04T03:58:02;6.28;;;1.23;;
76351;SDS011;65179;47.786;19.138;2023-02-04T04:00:28;6.95;;;1.27;;
76351;SDS011;65179;47.786;19.138;2023-02-04T04:02:56;4.25;;;1.20;;
76351;SDS011;65179;47.786;19.138;2023-02-04T04:05:22;3.83;;;0.93;;
76351;SDS011;65179;47.786;19.138;2023-02-04T04:07:52;4.37;;;1.00;;
76351;SDS011;65179;47.786;19.138;2023-02-04T04:10:21;5.32;;;1.15;;
76351;SDS011;65179;47.786;19.138;2023-02-04T04:12:47;4.20;;;1.20;;
76351;SDS011;65179;47.786;19.138;2023-02-04T04:15:15;5.60;;;1.10;;
76351;SDS011;65179;47.786;19.138;2023-02-04T04:17:40;7.10;;;1.73;;
76351;SDS011;65179;47.786;19.138;2023-02-04T04:20:11;4.43;;;1.13;;
76351;SDS011;65179;47.786;19.138;2023-02-04T04:22:40;5.80;;;1.08;;
76351;SDS011;65179;47.786;19.138;2023-02-04T04:25:09;7.10;;;1.10;;
76351;SDS011;65179;47.786;19.138;2023-02-04T04:27:35;11.83;;;1.43;;
76351;SDS011;65179;47.786;19.138;2023-02-04T04:30:00;8.88;;;1.30;;
76351;SDS011;65179;47.786;19.138;2023-02-04T04:32:30;7.28;;;1.00;;
76351;SDS011;65179;47.786;19.138;2023-02-04T04:35:00;9.15;;;1.10;;
76351;SDS011;65179;47.786;19.138;2023-02-04T04:37:25;7.20;;;1.40;;
76351;SDS011;65179;47.786;19.138;2023-02-04T04:39:51;8.98;;;1.40;;
76351;SDS011;65179;47.786;19.138;2023-02-04T04:42:17;9.33;;;1.40;;
76351;SDS011;65179;47.786;19.138;2023-02-04T04:44:46;4.25;;;1.20;;
76351;SDS011;65179;47.786;19.138;2023-02-04T04:47:11;5.93;;;1.13;;
76351;SDS011;65179;47.786;19.138;2023-02-04T04:49:41;5.00;;;1.02;;
76351;SDS011;65179;47.786;19.138;2023-02-04T04:52:06;7.10;;;1.17;;
76351;SDS011;65179;47.786;19.138;2023-02-04T04:54:37;6.13;;;1.67;;
76351;SDS011;65179;47.786;19.138;2023-02-04T04:57:08;6.93;;;1.60;;
76351;SDS011;65179;47.786;19.138;2023-02-04T04:59:37;8.25;;;1.80;;
76351;SDS011;65179;47.786;19.138;2023-02-04T05:02:03;8.37;;;1.60;;
76351;SDS011;65179;47.786;19.138;2023-02-04T05:04:32;5.28;;;0.90;;
76351;SDS011;65179;47.786;19.138;2023-02-04T05:07:02;10.95;;;1.70;;
76351;SDS011;65179;47.786;19.138;2023-02-04T05:09:28;6.28;;;1.23;;
76351;SDS011;65179;47.786;19.138;2023-02-04T05:11:57;7.07;;;1.50;;
76351;SDS011;65179;47.786;19.138;2023-02-04T05:14:27;5.47;;;1.30;;
76351;SDS011;65179;47.786;19.138;2023-02-04T05:16:57;6.93;;;1.25;;
76351;SDS011;65179;47.786;19.138;2023-02-04T05:19:23;5.00;;;0.93;;
76351;SDS011;65179;47.786;19.138;2023-02-04T05:21:52;4.78;;;0.80;;
76351;SDS011;65179;47.786;19.138;2023-02-04T05:24:21;4.70;;;0.98;;
76351;SDS011;65179;47.786;19.138;2023-02-04T05:26:52;4.82;;;0.75;;
76351;SDS011;65179;47.786;19.138;2023-02-04T05:29:22;4.55;;;1.10;;
76351;SDS011;65179;47.786;19.138;2023-02-04T05:31:47;4.75;;;0.90;;
76351;SDS011;65179;47.786;19.138;2023-02-04T05:34:13;6.37;;;1.13;;
76351;SDS011;65179;47.786;19.138;2023-02-04T05:36:42;4.00;;;0.77;;
76351;SDS011;65179;47.786;19.138;2023-02-04T05:39:11;4.10;;;0.80;;
76351;SDS011;65179;47.786;19.138;2023-02-04T05:41:37;3.93;;;0.60;;
76351;SDS011;65179;47.786;19.138;2023-02-04T05:44:03;7.35;;;0.80;;
76351;SDS011;65179;47.786;19.138;2023-02-04T05:46:33;6.30;;;0.90;;
76351;SDS011;65179;47.786;19.138;2023-02-04T05:49:03;2.20;;;0.50;;
76351;SDS011;65179;47.786;19.138;2023-02-04T05:51:28;3.67;;;0.60;;
76351;SDS011;65179;47.786;19.138;2023-02-04T05:53:54;5.12;;;0.82;;
76351;SDS011;65179;47.786;19.138;2023-02-04T05:56:20;4.60;;;0.50;;
76351;SDS011;65179;47.786;19.138;2023-02-04T05:58:49;2.97;;;0.60;;
76351;SDS011;65179;47.786;19.138;2023-02-04T06:01:15;2.97;;;0.83;;
76351;SDS011;65179;47.786;19.138;2023-02-04T06:03:40;3.45;;;0.65;;
76351;SDS011;65179;47.786;19.138;2023-02-04T06:06:10;3.22;;;0.70;;
76351;SDS011;65179;47.786;19.138;2023-02-04T06:08:35;4.35;;;0.70;;
76351;SDS011;65179;47.786;19.138;2023-02-04T06:11:01;2.55;;;0.60;;
76351;SDS011;65179;47.786;19.138;2023-02-04T06:13:30;2.22;;;0.50;;
76351;SDS011;65179;47.786;19.138;2023-02-04T06:15:59;3.10;;;0.60;;
76351;SDS011;65179;47.786;19.138;2023-02-04T06:18:29;3.58;;;0.62;;
76351;SDS011;65179;47.786;19.138;2023-02-04T06:20:58;2.20;;;0.50;;
76351;SDS011;65179;47.786;19.138;2023-02-04T06:23:29;3.55;;;1.00;;
76351;SDS011;65179;47.786;19.138;2023-02-04T06:25:58;3.45;;;1.00;;
76351;SDS011;65179;47.786;19.138;2023-02-04T06:28:23;3.80;;;0.80;;
76351;SDS011;65179;47.786;19.138;2023-02-04T06:30:53;3.10;;;0.80;;
76351;SDS011;65179;47.786;19.138;2023-02-04T06:33:23;3.03;;;0.80;;
76351;SDS011;65179;47.786;19.138;2023-02-04T06:35:53;2.17;;;0.53;;
76351;SDS011;65179;47.786;19.138;2023-02-04T06:38:23;2.42;;;0.40;;
76351;SDS011;65179;47.786;19.138;2023-02-04T06:40:49;3.10;;;0.70;;
76351;SDS011;65179;47.786;19.138;2023-02-04T06:43:17;2.95;;;0.70;;
76351;SDS011;65179;47.786;19.138;2023-02-04T06:45:43;3.25;;;0.93;;
76351;SDS011;65179;47.786;19.138;2023-02-04T06:48:09;3.03;;;0.77;;
76351;SDS011;65179;47.786;19.138;2023-02-04T06:50:43;2.72;;;0.57;;
76351;SDS011;65179;47.786;19.138;2023-02-04T06:53:09;3.17;;;0.90;;
76351;SDS011;65179;47.786;19.138;2023-02-04T06:55:35;2.62;;;0.55;;
76351;SDS011;65179;47.786;19.138;2023-02-04T06:58:00;4.27;;;1.17;;
76351;SDS011;65179;47.786;19.138;2023-02-04T07:00:26;2.50;;;0.60;;
76351;SDS011;65179;47.786;19.138;2023-02-04T07:02:57;2.97;;;0.80;;
76351;SDS011;65179;47.786;19.138;2023-02-04T07:05:27;3.07;;;0.80;;
76351;SDS011;65179;47.786;19.138;2023-02-04T07:07:53;2.53;;;0.65;;
76351;SDS011;65179;47.786;19.138;2023-02-04T07:10:19;3.97;;;1.20;;
76351;SDS011;65179;47.786;19.138;2023-02-04T07:12:49;3.35;;;1.05;;
76351;SDS011;65179;47.786;19.138;2023-02-04T07:15:20;2.92;;;1.10;;
76351;SDS011;65179;47.786;19.138;2023-02-04T07:17:45;3.33;;;1.13;;
76351;SDS011;65179;47.786;19.138;2023-02-04T07:20:11;3.15;;;1.20;;
76351;SDS011;65179;47.786;19.138;2023-02-04T07:22:37;3.50;;;1.20;;
76351;SDS011;65179;47.786;19.138;2023-02-04T07:25:02;3.67;;;1.20;;
76351;SDS011;65179;47.786;19.138;2023-02-04T07:27:28;3.50;;;0.98;;
76351;SDS011;65179;47.786;19.138;2023-02-04T07:29:54;4.70;;;1.10;;
76351;SDS011;65179;47.786;19.138;2023-02-04T07:32:19;3.28;;;1.00;;
76351;SDS011;65179;47.786;19.138;2023-02-04T07:34:45;3.22;;;1.20;;
76351;SDS011;65179;47.786;19.138;2023-02-04T07:37:20;4.10;;;1.23;;
76351;SDS011;65179;47.786;19.138;2023-02-04T07:39:46;4.70;;;1.55;;
76351;SDS011;65179;47.786;19.138;2023-02-04T07:42:14;4.25;;;1.55;;
76351;SDS011;65179;47.786;19.138;2023-02-04T07:44:40;5.03;;;1.77;;
76351;SDS011;65179;47.786;19.138;2023-02-04T07:47:05;5.57;;;1.62;;
76351;SDS011;65179;47.786;19.138;2023-02-04T07:49:33;8.07;;;1.70;;
76351;SDS011;65179;47.786;19.138;2023-02-04T07:52:01;5.35;;;2.28;;
76351;SDS011;65179;47.786;19.138;2023-02-04T07:54:26;4.00;;;1.83;;
76351;SDS011;65179;47.786;19.138;2023-02-04T07:56:52;6.13;;;2.67;;
76351;SDS011;65179;47.786;19.138;2023-02-04T07:59:17;4.33;;;2.00;;
76351;SDS011;65179;47.786;19.138;2023-02-04T08:01:43;4.80;;;2.00;;
76351;SDS011;65179;47.786;19.138;2023-02-04T08:04:08;5.20;;;2.13;;
76351;SDS011;65179;47.786;19.138;2023-02-04T08:06:34;5.20;;;2.00;;
76351;SDS011;65179;47.786;19.138;2023-02-04T08:08:59;4.87;;;1.70;;
76351;SDS011;65179;47.786;19.138;2023-02-04T08:11:25;5.60;;;2.10;;
76351;SDS011;65179;47.786;19.138;2023-02-04T08:13:51;5.45;;;2.10;;
76351;SDS011;65179;47.786;19.138;2023-02-04T08:16:16;4.70;;;1.87;;
76351;SDS011;65179;47.786;19.138;2023-02-04T08:18:42;6.40;;;2.53;;
76351;SDS011;65179;47.786;19.138;2023-02-04T08:21:07;5.00;;;2.50;;
76351;SDS011;65179;47.786;19.138;2023-02-04T08:23:33;6.40;;;2.72;;
76351;SDS011;65179;47.786;19.138;2023-02-04T08:25:58;5.27;;;2.20;;
76351;SDS011;65179;47.786;19.138;2023-02-04T08:28:24;4.93;;;2.12;;
76351;SDS011;65179;47.786;19.138;2023-02-04T08:30:50;4.03;;;1.87;;
76351;SDS011;65179;47.786;19.138;2023-02-04T08:33:15;6.85;;;2.65;;
76351;SDS011;65179;47.786;19.138;2023-02-04T08:35:41;6.77;;;2.40;;
76351;SDS011;65179;47.786;19.138;2023-02-04T08:38:07;5.40;;;2.37;;
76351;SDS011;65179;47.786;19.138;2023-02-04T08:40:35;4.78;;;2.40;;
76351;SDS011;65179;47.786;19.138;2023-02-04T08:43:02;4.73;;;2.10;;
76351;SDS011;65179;47.786;19.138;2023-02-04T08:45:27;4.90;;;2.15;;
76351;SDS011;65179;47.786;19.138;2023-02-04T08:47:53;5.13;;;1.53;;
76351;SDS011;65179;47.786;19.138;2023-02-04T08:50:18;7.57;;;2.40;;
76351;SDS011;65179;47.786;19.138;2023-02-04T08:52:44;5.00;;;2.00;;
76351;SDS011;65179;47.786;19.138;2023-02-04T08:55:09;4.43;;;1.90;;
76351;SDS011;65179;47.786;19.138;2023-02-04T08:57:39;5.90;;;1.77;;
76351;SDS011;65179;47.786;19.138;2023-02-04T09:00:05;4.27;;;1.87;;
76351;SDS011;65179;47.786;19.138;2023-02-04T09:02:32;3.10;;;0.98;;
76351;SDS011;65179;47.786;19.138;2023-02-04T09:04:57;3.93;;;1.00;;
76351;SDS011;65179;47.786;19.138;2023-02-04T09:07:23;3.75;;;1.30;;
76351;SDS011;65179;47.786;19.138;2023-02-04T09:09:48;5.37;;;1.62;;
76351;SDS011;65179;47.786;19.138;2023-02-04T09:12:14;4.80;;;1.00;;
76351;SDS011;65179;47.786;19.138;2023-02-04T09:14:42;3.10;;;0.90;;
76351;SDS011;65179;47.786;19.138;2023-02-04T09:17:07;3.53;;;1.37;;
76351;SDS011;65179;47.786;19.138;2023-02-04T09:19:33;3.70;;;1.23;;
76351;SDS011;65179;47.786;19.138;2023-02-04T09:22:00;4.12;;;1.02;;
76351;SDS011;65179;47.786;19.138;2023-02-04T09:24:26;8.67;;;1.70;;
76351;SDS011;65179;47.786;19.138;2023-02-04T09:26:51;6.75;;;2.05;;
76351;SDS011;65179;47.786;19.138;2023-02-04T09:29:16;6.20;;;1.20;;
76351;SDS011;65179;47.786;19.138;2023-02-04T09:31:42;5.70;;;1.70;;
76351;SDS011;65179;47.786;19.138;2023-02-04T09:34:08;7.28;;;1.95;;
76351;SDS011;65179;47.786;19.138;2023-02-04T09:36:33;6.57;;;2.57;;
76351;SDS011;65179;47.786;19.138;2023-02-04T09:39:02;4.60;;;1.52;;
76351;SDS011;65179;47.786;19.138;2023-02-04T09:41:30;5.07;;;1.73;;
76351;SDS011;65179;47.786;19.138;2023-02-04T09:43:57;4.63;;;1.40;;
76351;SDS011;65179;47.786;19.138;2023-02-04T09:46:24;5.25;;;1.48;;
76351;SDS011;65179;47.786;19.138;2023-02-04T09:48:55;3.78;;;1.27;;
76351;SDS011;65179;47.786;19.138;2023-02-04T09:51:24;2.83;;;0.85;;
76351;SDS011;65179;47.786;19.138;2023-02-04T09:53:51;3.47;;;1.08;;
76351;SDS011;65179;47.786;19.138;2023-02-04T09:56:19;4.80;;;1.47;;
76351;SDS011;65179;47.786;19.138;2023-02-04T09:58:45;4.72;;;1.30;;
76351;SDS011;65179;47.786;19.138;2023-02-04T10:01:17;4.63;;;1.30;;
76351;SDS011;65179;47.786;19.138;2023-02-04T10:03:44;4.25;;;1.48;;
76351;SDS011;65179;47.786;19.138;2023-02-04T10:06:13;3.50;;;1.30;;
76351;SDS011;65179;47.786;19.138;2023-02-04T10:08:39;3.45;;;1.30;;
76351;SDS011;65179;47.786;19.138;2023-02-04T10:11:06;3.20;;;0.93;;
76351;SDS011;65179;47.786;19.138;2023-02-04T10:13:37;3.93;;;1.30;;
76351;SDS011;65179;47.786;19.138;2023-02-04T10:16:22;3.50;;;1.40;;
76351;SDS011;65179;47.786;19.138;2023-02-04T10:18:55;3.60;;;1.30;;
76351;SDS011;65179;47.786;19.138;2023-02-04T10:23:56;3.53;;;1.00;;
76351;SDS011;65179;47.786;19.138;2023-02-04T10:26:29;2.67;;;0.77;;
76351;SDS011;65179;47.786;19.138;2023-02-04T10:29:06;3.83;;;0.82;;
76351;SDS011;65179;47.786;19.138;2023-02-04T10:31:38;2.83;;;0.93;;
76351;SDS011;65179;47.786;19.138;2023-02-04T10:36:33;3.40;;;0.83;;
76351;SDS011;65179;47.786;19.138;2023-02-04T10:39:09;2.90;;;1.07;;
76351;SDS011;65179;47.786;19.138;2023-02-04T10:41:50;4.60;;;1.70;;
76351;SDS011;65179;47.786;19.138;2023-02-04T10:44:19;4.60;;;1.60;;
76351;SDS011;65179;47.786;19.138;2023-02-04T10:47:14;6.18;;;1.75;;
76351;SDS011;65179;47.786;19.138;2023-02-04T10:49:55;5.80;;;1.48;;
76351;SDS011;65179;47.786;19.138;2023-02-04T10:52:40;4.10;;;1.58;;
76351;SDS011;65179;47.786;19.138;2023-02-04T10:55:12;3.72;;;1.15;;
76351;SDS011;65179;47.786;19.138;2023-02-04T10:57:40;4.75;;;1.30;;
76351;SDS011;65179;47.786;19.138;2023-02-04T11:00:14;3.60;;;1.30;;
76351;SDS011;65179;47.786;19.138;2023-02-04T11:05:16;2.05;;;0.57;;
76351;SDS011;65179;47.786;19.138;2023-02-04T11:07:45;2.80;;;0.80;;
76351;SDS011;65179;47.786;19.138;2023-02-04T11:10:12;3.60;;;0.77;;
76351;SDS011;65179;47.786;19.138;2023-02-04T11:12:57;8.02;;;1.10;;
76351;SDS011;65179;47.786;19.138;2023-02-04T11:20:55;3.75;;;1.33;;
76351;SDS011;65179;47.786;19.138;2023-02-04T11:26:11;4.10;;;1.25;;
76351;SDS011;65179;47.786;19.138;2023-02-04T11:28:45;4.62;;;1.10;;
76351;SDS011;65179;47.786;19.138;2023-02-04T11:31:12;4.93;;;1.08;;
76351;SDS011;65179;47.786;19.138;2023-02-04T11:39:26;2.65;;;0.77;;
76351;SDS011;65179;47.786;19.138;2023-02-04T11:42:01;2.90;;;0.90;;
76351;SDS011;65179;47.786;19.138;2023-02-04T11:44:28;2.62;;;0.60;;
76351;SDS011;65179;47.786;19.138;2023-02-04T11:46:54;3.20;;;0.80;;
76351;SDS011;65179;47.786;19.138;2023-02-04T11:49:21;2.97;;;1.00;;
76351;SDS011;65179;47.786;19.138;2023-02-04T11:51:49;3.35;;;1.02;;
76351;SDS011;65179;47.786;19.138;2023-02-04T11:54:16;2.83;;;0.88;;
76351;SDS011;65179;47.786;19.138;2023-02-04T11:56:46;3.50;;;1.30;;
76351;SDS011;65179;47.786;19.138;2023-02-04T11:59:12;4.72;;;1.00;;
76351;SDS011;65179;47.786;19.138;2023-02-04T12:01:39;2.90;;;0.80;;
76351;SDS011;65179;47.786;19.138;2023-02-04T12:04:20;2.92;;;0.90;;
76351;SDS011;65179;47.786;19.138;2023-02-04T12:07:01;2.90;;;1.00;;
76351;SDS011;65179;47.786;19.138;2023-02-04T12:09:29;2.40;;;0.80;;
76351;SDS011;65179;47.786;19.138;2023-02-04T12:11:56;3.70;;;1.20;;
76351;SDS011;65179;47.786;19.138;2023-02-04T12:14:35;3.97;;;1.15;;
76351;SDS011;65179;47.786;19.138;2023-02-04T12:17:17;4.32;;;1.00;;
76351;SDS011;65179;47.786;19.138;2023-02-04T12:19:44;4.12;;;1.35;;
76351;SDS011;65179;47.786;19.138;2023-02-04T12:22:15;3.53;;;1.15;;
76351;SDS011;65179;47.786;19.138;2023-02-04T12:24:41;6.90;;;2.15;;
76351;SDS011;65179;47.786;19.138;2023-02-04T12:27:07;3.70;;;1.20;;
76351;SDS011;65179;47.786;19.138;2023-02-04T12:29:33;4.00;;;0.93;;
76351;SDS011;65179;47.786;19.138;2023-02-04T12:31:58;4.70;;;1.30;;
76351;SDS011;65179;47.786;19.138;2023-02-04T12:34:24;3.30;;;1.20;;
76351;SDS011;65179;47.786;19.138;2023-02-04T12:36:49;3.17;;;1.20;;
76351;SDS011;65179;47.786;19.138;2023-02-04T12:39:15;2.90;;;1.00;;
76351;SDS011;65179;47.786;19.138;2023-02-04T12:41:40;2.65;;;0.80;;
76351;SDS011;65179;47.786;19.138;2023-02-04T12:44:06;4.47;;;1.00;;
76351;SDS011;65179;47.786;19.138;2023-02-04T12:46:31;2.90;;;0.83;;
76351;SDS011;65179;47.786;19.138;2023-02-04T12:48:57;3.42;;;1.00;;
76351;SDS011;65179;47.786;19.138;2023-02-04T12:51:22;2.90;;;1.00;;
76351;SDS011;65179;47.786;19.138;2023-02-04T12:53:48;3.20;;;0.83;;
76351;SDS011;65179;47.786;19.138;2023-02-04T12:56:14;3.43;;;1.20;;
76351;SDS011;65179;47.786;19.138;2023-02-04T12:58:39;4.10;;;1.40;;
76351;SDS011;65179;47.786;19.138;2023-02-04T13:01:05;4.43;;;1.70;;
76351;SDS011;65179;47.786;19.138;2023-02-04T13:03:31;4.60;;;1.40;;
76351;SDS011;65179;47.786;19.138;2023-02-04T13:05:57;3.62;;;1.12;;
76351;SDS011;65179;47.786;19.138;2023-02-04T13:08:23;3.13;;;1.00;;
76351;SDS011;65179;47.786;19.138;2023-02-04T13:10:48;3.67;;;1.02;;
76351;SDS011;65179;47.786;19.138;2023-02-04T13:13:18;3.37;;;1.02;;
76351;SDS011;65179;47.786;19.138;2023-02-04T13:15:45;3.53;;;1.10;;
76351;SDS011;65179;47.786;19.138;2023-02-04T13:18:10;4.25;;;1.02;;
76351;SDS011;65179;47.786;19.138;2023-02-04T13:20:36;4.47;;;1.17;;
76351;SDS011;65179;47.786;19.138;2023-02-04T13:23:02;3.80;;;1.30;;
76351;SDS011;65179;47.786;19.138;2023-02-04T13:25:27;4.95;;;1.27;;
76351;SDS011;65179;47.786;19.138;2023-02-04T13:27:53;6.53;;;2.20;;
76351;SDS011;65179;47.786;19.138;2023-02-04T13:30:18;5.10;;;1.60;;
76351;SDS011;65179;47.786;19.138;2023-02-04T13:32:44;4.50;;;1.20;;
76351;SDS011;65179;47.786;19.138;2023-02-04T13:35:10;3.65;;;1.40;;
76351;SDS011;65179;47.786;19.138;2023-02-04T13:37:36;3.67;;;1.23;;
76351;SDS011;65179;47.786;19.138;2023-02-04T13:40:02;4.50;;;1.40;;
76351;SDS011;65179;47.786;19.138;2023-02-04T13:42:29;5.30;;;1.20;;
76351;SDS011;65179;47.786;19.138;2023-02-04T13:44:54;3.75;;;1.48;;
76351;SDS011;65179;47.786;19.138;2023-02-04T13:47:20;3.80;;;1.67;;
76351;SDS011;65179;47.786;19.138;2023-02-04T13:49:46;3.70;;;1.10;;
76351;SDS011;65179;47.786;19.138;2023-02-04T13:52:13;3.92;;;1.20;;
76351;SDS011;65179;47.786;19.138;2023-02-04T13:54:39;5.12;;;1.55;;
76351;SDS011;65179;47.786;19.138;2023-02-04T13:57:04;3.20;;;1.20;;
76351;SDS011;65179;47.786;19.138;2023-02-04T13:59:30;4.20;;;1.35;;
76351;SDS011;65179;47.786;19.138;2023-02-04T14:01:56;3.58;;;1.30;;
76351;SDS011;65179;47.786;19.138;2023-02-04T14:04:21;3.20;;;1.47;;
76351;SDS011;65179;47.786;19.138;2023-02-04T14:06:47;4.77;;;1.37;;
76351;SDS011;65179;47.786;19.138;2023-02-04T14:09:12;5.95;;;1.90;;
76351;SDS011;65179;47.786;19.138;2023-02-04T14:11:38;4.62;;;1.40;;
76351;SDS011;65179;47.786;19.138;2023-02-04T14:14:04;4.50;;;1.75;;
76351;SDS011;65179;47.786;19.138;2023-02-04T14:16:30;4.47;;;1.60;;
76351;SDS011;65179;47.786;19.138;2023-02-04T14:18:56;4.18;;;1.37;;
76351;SDS011;65179;47.786;19.138;2023-02-04T14:21:21;4.60;;;1.80;;
76351;SDS011;65179;47.786;19.138;2023-02-04T14:23:47;4.65;;;1.80;;
76351;SDS011;65179;47.786;19.138;2023-02-04T14:26:13;3.43;;;1.37;;
76351;SDS011;65179;47.786;19.138;2023-02-04T14:28:38;5.00;;;1.70;;
76351;SDS011;65179;47.786;19.138;2023-02-04T14:31:04;3.95;;;1.45;;
76351;SDS011;65179;47.786;19.138;2023-02-04T14:33:29;6.80;;;1.93;;
76351;SDS011;65179;47.786;19.138;2023-02-04T14:35:55;4.35;;;1.70;;
76351;SDS011;65179;47.786;19.138;2023-02-04T14:38:20;4.60;;;1.80;;
76351;SDS011;65179;47.786;19.138;2023-02-04T14:40:47;5.35;;;2.05;;
76351;SDS011;65179;47.786;19.138;2023-02-04T14:43:13;5.57;;;2.57;;
76351;SDS011;65179;47.786;19.138;2023-02-04T14:45:39;3.67;;;1.47;;
76351;SDS011;65179;47.786;19.138;2023-02-04T14:48:05;4.80;;;1.77;;
76351;SDS011;65179;47.786;19.138;2023-02-04T14:50:33;5.62;;;2.50;;
76351;SDS011;65179;47.786;19.138;2023-02-04T14:53:00;9.52;;;3.37;;
76351;SDS011;65179;47.786;19.138;2023-02-04T14:55:25;8.43;;;3.40;;
76351;SDS011;65179;47.786;19.138;2023-02-04T14:57:51;6.35;;;2.20;;
76351;SDS011;65179;47.786;19.138;2023-02-04T15:00:18;5.60;;;2.20;;